Time;durP1;ratioP1;P1;durP2;ratioP2;P2;SDS_P1;SDS_P2;PMS_P1;PMS_P2;Temp;Humidity;BMP_temperature;BMP_pressure;BME280_temperature;BME280_humidity;BME280_pressure;Samples;Min_cycle;Max_cycle;Signal;HPM_P1;HPM_P2
2023/12/07 00:01:47;;;;;;;5.53;3.00;;;21.70;66.00;;;;;;4968277;28;20464;-59
2023/12/07 00:04:16;;;;;;;5.63;3.20;;;21.70;66.20;;;;;;4964938;28;20477;-60
2023/12/07 00:06:42;;;;;;;4.00;3.30;;;21.70;66.20;;;;;;4974904;28;20460;-60
2023/12/07 00:09:09;;;;;;;4.00;2.75;;;21.70;66.30;;;;;;4972368;28;20463;-58
2023/12/07 00:11:36;;;;;;;3.30;3.00;;;21.60;66.10;;;;;;4982675;28;20205;-58
2023/12/07 00:14:03;;;;;;;4.53;3.30;;;21.60;66.20;;;;;;4983935;28;20668;-60
2023/12/07 00:16:29;;;;;;;3.00;2.70;;;21.60;66.30;;;;;;4981384;28;20467;-61
2023/12/07 00:18:56;;;;;;;4.07;3.30;;;21.60;66.20;;;;;;4981927;28;20577;-61
2023/12/07 00:21:24;;;;;;;7.50;3.17;;;21.60;66.40;;;;;;4984654;28;20864;-61
2023/12/07 00:23:51;;;;;;;4.03;3.25;;;21.60;66.30;;;;;;4982172;28;20498;-61
2023/12/07 00:26:17;;;;;;;4.73;3.57;;;21.60;66.40;;;;;;4983417;28;20201;-61
2023/12/07 00:28:44;;;;;;;3.43;3.03;;;21.60;66.50;;;;;;4984361;28;20463;-59
2023/12/07 00:31:11;;;;;;;3.27;2.93;;;21.50;66.20;;;;;;4984037;28;20463;-61
2023/12/07 00:33:38;;;;;;;5.93;3.73;;;21.50;66.30;;;;;;4983086;28;20480;-61
2023/12/07 00:36:05;;;;;;;3.60;2.30;;;21.50;66.50;;;;;;4985205;28;20462;-59
2023/12/07 00:38:33;;;;;;;4.23;3.37;;;21.50;66.40;;;;;;4979740;28;20468;-57
2023/12/07 00:40:59;;;;;;;5.53;3.40;;;21.50;66.50;;;;;;4981572;28;20915;-57
2023/12/07 00:43:26;;;;;;;4.07;2.67;;;21.50;66.60;;;;;;4979608;28;20908;-59
2023/12/07 00:45:53;;;;;;;3.60;3.20;;;21.60;66.70;;;;;;4984044;28;20464;-60
2023/12/07 00:48:20;;;;;;;3.73;3.03;;;21.40;66.40;;;;;;4981554;28;20467;-59
2023/12/07 00:50:47;;;;;;;4.30;3.47;;;21.50;66.50;;;;;;4982881;28;22272;-60
2023/12/07 00:53:14;;;;;;;4.90;3.50;;;21.50;66.60;;;;;;4986584;28;20199;-58
2023/12/07 00:55:42;;;;;;;4.40;3.10;;;21.50;66.60;;;;;;4981611;28;20480;-60
2023/12/07 00:58:08;;;;;;;5.43;3.17;;;21.40;66.40;;;;;;4977145;28;20267;-58
2023/12/07 01:00:35;;;;;;;3.73;3.20;;;21.40;66.50;;;;;;4987009;28;20798;-61
2023/12/07 01:03:02;;;;;;;3.03;2.73;;;21.40;66.80;;;;;;4984500;28;21057;-60
2023/12/07 01:05:28;;;;;;;3.43;2.80;;;21.40;66.60;;;;;;4989448;28;20471;-60
2023/12/07 01:07:55;;;;;;;3.27;2.60;;;21.40;66.50;;;;;;4983464;28;21331;-60
2023/12/07 01:10:22;;;;;;;2.97;2.70;;;21.40;66.50;;;;;;4984258;28;20460;-61
2023/12/07 01:12:50;;;;;;;5.47;3.73;;;21.40;66.40;;;;;;4987166;28;20200;-61
2023/12/07 01:15:16;;;;;;;3.30;3.00;;;21.40;66.40;;;;;;4987368;28;20516;-58
2023/12/07 01:17:43;;;;;;;3.70;2.85;;;21.40;66.40;;;;;;4987095;28;21347;-62
2023/12/07 01:20:12;;;;;;;4.53;2.90;;;21.40;66.40;;;;;;4993010;28;20620;-59
2023/12/07 01:22:40;;;;;;;5.93;3.00;;;21.40;66.50;;;;;;4986994;28;20201;-60
2023/12/07 01:25:07;;;;;;;3.73;2.57;;;21.40;66.50;;;;;;4985374;28;20315;-60
2023/12/07 01:27:34;;;;;;;3.50;3.10;;;21.40;66.50;;;;;;4984900;28;20478;-59
2023/12/07 01:30:03;;;;;;;3.90;3.05;;;21.40;66.50;;;;;;4983212;28;20604;-61
2023/12/07 01:32:30;;;;;;;3.70;3.10;;;21.40;66.50;;;;;;4974731;28;20212;-59
2023/12/07 01:34:56;;;;;;;3.65;2.83;;;21.40;66.60;;;;;;4985976;28;20849;-61
2023/12/07 01:37:23;;;;;;;2.60;2.40;;;21.40;66.60;;;;;;4986369;28;20212;-60
2023/12/07 01:39:50;;;;;;;3.22;2.50;;;21.40;66.50;;;;;;4986526;28;20227;-60
2023/12/07 01:42:17;;;;;;;2.93;2.53;;;21.30;66.50;;;;;;4985266;28;20200;-61
2023/12/07 01:44:43;;;;;;;3.50;2.83;;;21.30;66.50;;;;;;4987848;28;20463;-60
2023/12/07 01:47:12;;;;;;;2.92;2.55;;;21.30;66.40;;;;;;4982872;28;20198;-61
2023/12/07 01:49:40;;;;;;;2.57;2.37;;;21.40;66.70;;;;;;4981446;28;20197;-59
2023/12/07 01:52:07;;;;;;;4.07;2.80;;;21.30;66.60;;;;;;4981759;28;20506;-59
2023/12/07 01:54:35;;;;;;;3.57;2.67;;;21.30;66.50;;;;;;4984562;28;20286;-60
2023/12/07 01:57:02;;;;;;;2.63;2.43;;;21.30;66.50;;;;;;4983117;28;20466;-57
2023/12/07 01:59:28;;;;;;;4.07;2.87;;;21.30;66.60;;;;;;4984645;28;20464;-59
2023/12/07 02:01:55;;;;;;;2.97;2.60;;;21.30;66.70;;;;;;4987945;28;21198;-57
2023/12/07 02:04:23;;;;;;;5.00;3.05;;;21.30;66.60;;;;;;4984393;28;20309;-60
2023/12/07 02:06:51;;;;;;;4.55;2.95;;;21.30;66.60;;;;;;4981615;28;20199;-60
2023/12/07 02:09:17;;;;;;;4.17;3.87;;;21.30;66.60;;;;;;4982405;28;20207;-61
2023/12/07 02:11:44;;;;;;;4.47;3.53;;;21.30;66.80;;;;;;4985344;28;20515;-61
2023/12/07 02:14:12;;;;;;;2.27;2.07;;;21.30;66.60;;;;;;4981298;28;20569;-60
2023/12/07 02:16:46;;;;;;;4.33;3.20;;;21.30;66.70;;;;;;4982168;28;20965;-61
2023/12/07 02:19:32;;;;;;;2.30;2.10;;;21.30;66.70;;;;;;4984144;28;21213;-60
2023/12/07 02:22:02;;;;;;;2.53;2.33;;;21.30;66.80;;;;;;4983914;28;22433;-61
2023/12/07 02:24:38;;;;;;;3.43;3.03;;;21.30;66.80;;;;;;4983076;28;20207;-60
2023/12/07 02:27:06;;;;;;;2.60;2.40;;;21.30;66.80;;;;;;4983829;28;20494;-60
2023/12/07 02:29:33;;;;;;;3.37;2.67;;;21.30;66.80;;;;;;4989120;28;20468;-59
2023/12/07 02:31:59;;;;;;;2.63;2.43;;;21.20;66.60;;;;;;4987525;28;20474;-60
2023/12/07 02:34:26;;;;;;;4.30;3.10;;;21.20;66.60;;;;;;4985299;28;20540;-60
2023/12/07 02:36:58;;;;;;;3.50;2.70;;;21.20;66.50;;;;;;4990027;28;21079;-60
2023/12/07 02:39:25;;;;;;;2.73;2.53;;;21.30;66.70;;;;;;4983195;28;20460;-61
2023/12/07 02:41:53;;;;;;;3.90;2.80;;;21.20;66.70;;;;;;4985249;28;20551;-60
2023/12/07 02:44:21;;;;;;;3.08;2.22;;;21.20;66.60;;;;;;4980157;28;20466;-60
2023/12/07 02:46:48;;;;;;;2.63;2.15;;;21.20;66.80;;;;;;4989092;28;20223;-56
2023/12/07 02:49:15;;;;;;;2.40;2.20;;;21.20;66.70;;;;;;4986507;28;20196;-60
2023/12/07 02:51:41;;;;;;;2.93;2.33;;;21.20;66.70;;;;;;4985091;28;20465;-59
2023/12/07 02:54:08;;;;;;;3.87;2.47;;;21.20;66.70;;;;;;4985049;28;20466;-61
2023/12/07 02:56:35;;;;;;;3.30;3.00;;;21.20;66.70;;;;;;4981581;28;20468;-60
2023/12/07 02:59:01;;;;;;;3.00;2.23;;;21.20;66.80;;;;;;4980824;28;20467;-59
2023/12/07 03:01:29;;;;;;;3.07;2.47;;;21.20;66.80;;;;;;4985068;28;21344;-60
2023/12/07 03:03:56;;;;;;;4.10;2.50;;;21.20;66.70;;;;;;4979002;28;21046;-61
2023/12/07 03:06:23;;;;;;;2.20;2.00;;;21.20;66.60;;;;;;4978411;28;20467;-61
2023/12/07 03:08:49;;;;;;;3.13;2.60;;;21.20;66.70;;;;;;4981718;28;20480;-59
2023/12/07 03:11:16;;;;;;;3.67;3.05;;;21.20;66.80;;;;;;4986167;28;20228;-60
2023/12/07 03:13:43;;;;;;;4.80;2.75;;;21.20;66.70;;;;;;4985936;28;20246;-60
2023/12/07 03:16:10;;;;;;;3.97;3.07;;;21.20;66.80;;;;;;4987261;28;20220;-61
2023/12/07 03:18:38;;;;;;;3.13;2.27;;;21.20;66.80;;;;;;4985996;28;20460;-61
2023/12/07 03:21:05;;;;;;;3.07;2.30;;;21.20;66.70;;;;;;4984425;28;20806;-61
2023/12/07 03:23:32;;;;;;;3.37;3.07;;;21.20;66.90;;;;;;4988939;28;20459;-61
2023/12/07 03:25:59;;;;;;;2.70;2.50;;;21.20;66.90;;;;;;4984040;28;20471;-61
2023/12/07 03:28:26;;;;;;;3.50;2.50;;;21.10;66.70;;;;;;4982945;28;20455;-61
2023/12/07 03:30:52;;;;;;;3.72;2.50;;;21.20;66.90;;;;;;4972499;28;20477;-59
2023/12/07 03:33:19;;;;;;;2.77;2.43;;;21.20;66.80;;;;;;4979310;28;20225;-61
2023/12/07 03:35:47;;;;;;;3.80;2.75;;;21.20;66.70;;;;;;4981742;28;20560;-61
2023/12/07 03:38:14;;;;;;;2.33;2.08;;;21.20;66.90;;;;;;4977131;28;20215;-59
2023/12/07 03:40:40;;;;;;;3.10;2.60;;;21.20;66.90;;;;;;4977514;28;20661;-61
2023/12/07 03:43:07;;;;;;;2.47;2.28;;;21.20;66.80;;;;;;4983326;28;20525;-60
2023/12/07 03:45:34;;;;;;;2.78;2.58;;;21.20;66.80;;;;;;4983401;28;20282;-61
2023/12/07 03:48:00;;;;;;;2.33;2.15;;;21.10;67.10;;;;;;4979821;28;20248;-61
2023/12/07 03:50:27;;;;;;;3.40;2.43;;;21.10;66.80;;;;;;4980827;28;20210;-61
2023/12/07 03:52:55;;;;;;;2.83;2.58;;;21.10;66.80;;;;;;4978624;28;20498;-61
2023/12/07 03:55:22;;;;;;;4.53;2.80;;;21.10;66.80;;;;;;4983158;28;20224;-61
2023/12/07 03:57:48;;;;;;;2.80;2.15;;;21.10;66.70;;;;;;4985665;28;20199;-59
2023/12/07 04:00:15;;;;;;;5.10;2.42;;;21.10;66.80;;;;;;4983805;28;20200;-61
2023/12/07 04:02:42;;;;;;;3.10;2.23;;;21.10;66.90;;;;;;4980880;28;20565;-62
2023/12/07 04:05:09;;;;;;;3.87;2.43;;;21.10;66.70;;;;;;4980197;28;20474;-62
2023/12/07 04:07:36;;;;;;;2.33;2.13;;;21.10;67.80;;;;;;4978226;28;20495;-61
2023/12/07 04:10:06;;;;;;;2.60;2.05;;;21.10;67.00;;;;;;4984318;28;20455;-60
2023/12/07 04:12:32;;;;;;;2.27;2.07;;;21.10;66.90;;;;;;4979329;28;20203;-62
2023/12/07 04:14:59;;;;;;;3.28;2.58;;;21.10;66.90;;;;;;4980645;28;22412;-61
2023/12/07 04:17:26;;;;;;;2.38;2.13;;;21.10;66.90;;;;;;4982197;28;20197;-61
2023/12/07 04:19:53;;;;;;;2.67;2.40;;;21.10;67.80;;;;;;4990642;28;20192;-61
2023/12/07 04:22:20;;;;;;;2.97;2.78;;;21.10;66.90;;;;;;4987040;28;21038;-60
2023/12/07 04:24:46;;;;;;;3.45;2.35;;;21.10;66.90;;;;;;4986498;28;20207;-60
2023/12/07 04:27:13;;;;;;;2.30;2.10;;;21.10;66.90;;;;;;4982156;28;20201;-61
2023/12/07 04:29:40;;;;;;;2.90;2.60;;;21.10;66.90;;;;;;4984886;28;20238;-62
2023/12/07 04:32:07;;;;;;;3.55;2.78;;;21.10;67.00;;;;;;4985463;28;20461;-59
2023/12/07 04:34:34;;;;;;;2.45;2.25;;;21.10;66.90;;;;;;4986217;28;20208;-62
2023/12/07 04:37:01;;;;;;;2.60;2.00;;;21.10;66.90;;;;;;4983687;28;20254;-60
2023/12/07 04:39:28;;;;;;;4.27;2.60;;;21.10;66.90;;;;;;4985627;28;21134;-59
2023/12/07 04:41:55;;;;;;;2.50;2.20;;;21.10;66.80;;;;;;4983244;28;20464;-61
2023/12/07 04:44:25;;;;;;;2.83;2.17;;;21.10;66.90;;;;;;4980457;28;20451;-60
2023/12/07 04:46:52;;;;;;;2.93;2.30;;;21.10;67.00;;;;;;4982486;28;20456;-59
2023/12/07 04:49:18;;;;;;;2.40;2.20;;;21.10;67.00;;;;;;4986801;28;20991;-60
2023/12/07 04:51:46;;;;;;;3.00;2.43;;;21.10;67.00;;;;;;4983704;28;20567;-59
2023/12/07 04:54:14;;;;;;;3.33;2.30;;;21.10;67.00;;;;;;4982915;28;20988;-61
2023/12/07 04:56:41;;;;;;;3.90;2.60;;;21.10;67.00;;;;;;4981665;28;20500;-59
2023/12/07 04:59:08;;;;;;;3.67;2.72;;;21.10;67.00;;;;;;4983078;28;20230;-60
2023/12/07 05:01:36;;;;;;;3.25;2.05;;;21.10;67.10;;;;;;4984487;28;20543;-61
2023/12/07 05:04:03;;;;;;;3.33;2.50;;;21.10;67.00;;;;;;4980479;28;20215;-57
2023/12/07 05:06:30;;;;;;;2.80;2.40;;;21.10;66.90;;;;;;4979542;28;20196;-60
2023/12/07 05:08:57;;;;;;;2.55;2.10;;;21.00;66.80;;;;;;4985521;28;20201;-59
2023/12/07 05:11:23;;;;;;;3.58;2.70;;;21.10;67.00;;;;;;4982910;28;21107;-61
2023/12/07 05:13:50;;;;;;;2.13;1.93;;;21.10;67.00;;;;;;4982933;28;20235;-59
2023/12/07 05:16:17;;;;;;;2.03;1.83;;;21.10;67.00;;;;;;4982768;28;20521;-61
2023/12/07 05:18:45;;;;;;;5.22;2.78;;;21.10;67.00;;;;;;4981665;28;20204;-60
2023/12/07 05:21:12;;;;;;;2.75;2.55;;;21.00;66.90;;;;;;4981936;28;20604;-61
2023/12/07 05:23:38;;;;;;;3.47;2.45;;;21.10;67.00;;;;;;4987678;28;20688;-60
2023/12/07 05:26:07;;;;;;;2.55;2.33;;;21.10;67.00;;;;;;4985502;28;20313;-61
2023/12/07 05:28:34;;;;;;;3.00;2.55;;;21.00;66.80;;;;;;4979622;28;20307;-59
2023/12/07 05:31:01;;;;;;;2.87;2.20;;;21.00;66.70;;;;;;4980592;28;20201;-60
2023/12/07 05:33:28;;;;;;;2.20;1.97;;;21.00;66.80;;;;;;4986501;28;20463;-60
2023/12/07 05:35:56;;;;;;;3.13;2.73;;;21.00;66.80;;;;;;4983509;28;20484;-59
2023/12/07 05:38:22;;;;;;;3.00;2.22;;;21.00;67.00;;;;;;4981931;28;20465;-61
2023/12/07 05:40:49;;;;;;;1.85;1.73;;;21.00;66.80;;;;;;4986230;28;20205;-61
2023/12/07 05:43:16;;;;;;;3.40;3.10;;;21.00;67.00;;;;;;4983727;28;20201;-61
2023/12/07 05:45:42;;;;;;;2.15;1.95;;;21.00;67.00;;;;;;4984366;28;20205;-57
2023/12/07 05:48:09;;;;;;;3.40;2.57;;;21.00;66.90;;;;;;4989088;28;20193;-60
2023/12/07 05:50:39;;;;;;;2.13;1.93;;;21.00;66.90;;;;;;4980451;28;20464;-61
2023/12/07 05:53:07;;;;;;;2.60;2.40;;;21.00;66.90;;;;;;4982807;28;20487;-61
2023/12/07 05:55:34;;;;;;;2.35;2.15;;;21.00;67.00;;;;;;4976025;28;20220;-60
2023/12/07 05:58:00;;;;;;;2.85;2.50;;;21.00;67.00;;;;;;4978051;28;20208;-61
2023/12/07 06:00:27;;;;;;;2.65;2.10;;;21.00;67.10;;;;;;4977908;28;20197;-60
2023/12/07 06:02:54;;;;;;;3.10;2.80;;;21.10;67.30;;;;;;4983125;28;20213;-60
2023/12/07 06:05:21;;;;;;;2.42;2.22;;;21.00;67.00;;;;;;4982627;28;20474;-58
2023/12/07 06:07:47;;;;;;;2.40;2.20;;;21.00;67.10;;;;;;4983057;28;20204;-60
2023/12/07 06:10:16;;;;;;;2.78;2.00;;;21.00;67.10;;;;;;4984647;28;20464;-60
2023/12/07 06:12:43;;;;;;;2.70;2.40;;;21.00;67.10;;;;;;4984118;28;20193;-61
2023/12/07 06:15:10;;;;;;;2.20;1.93;;;21.00;67.10;;;;;;4983799;28;20464;-60
2023/12/07 06:17:37;;;;;;;2.35;2.15;;;21.00;67.10;;;;;;4981454;28;20469;-60
2023/12/07 06:20:05;;;;;;;2.33;2.10;;;21.00;67.00;;;;;;4979187;28;20199;-61
2023/12/07 06:22:31;;;;;;;2.47;2.20;;;21.00;67.10;;;;;;4982293;28;20467;-61
2023/12/07 06:24:58;;;;;;;2.42;2.20;;;21.00;67.10;;;;;;4984256;28;20204;-61
2023/12/07 06:27:26;;;;;;;2.00;1.80;;;21.00;67.10;;;;;;4982706;28;20258;-61
2023/12/07 06:29:53;;;;;;;2.40;2.20;;;21.00;67.10;;;;;;4983179;28;20189;-60
2023/12/07 06:32:20;;;;;;;3.88;2.72;;;21.00;67.10;;;;;;4981696;28;20463;-61
2023/12/07 06:34:46;;;;;;;3.45;2.30;;;21.00;67.20;;;;;;4980698;28;20206;-61
2023/12/07 06:37:13;;;;;;;2.70;2.47;;;21.00;67.10;;;;;;4974223;28;20278;-59
2023/12/07 06:39:40;;;;;;;2.90;2.30;;;21.00;67.10;;;;;;4976513;28;20232;-60
2023/12/07 06:42:07;;;;;;;2.95;2.65;;;21.00;67.20;;;;;;4979335;28;20215;-59
2023/12/07 06:44:35;;;;;;;2.50;2.27;;;21.00;67.10;;;;;;4980915;28;20296;-60
2023/12/07 06:47:04;;;;;;;3.03;2.60;;;21.00;67.10;;;;;;4982249;28;20517;-60
2023/12/07 06:49:31;;;;;;;2.90;2.15;;;21.00;67.00;;;;;;4985532;28;20208;-61
2023/12/07 06:51:57;;;;;;;2.35;2.15;;;21.00;67.10;;;;;;4974640;28;20282;-61
2023/12/07 06:54:24;;;;;;;3.03;2.30;;;21.00;67.20;;;;;;4979671;28;20206;-59
2023/12/07 06:56:50;;;;;;;2.28;2.00;;;21.00;67.20;;;;;;4980866;28;20487;-61
2023/12/07 06:59:17;;;;;;;2.67;1.90;;;21.00;67.10;;;;;;4979316;28;20284;-56
2023/12/07 07:01:45;;;;;;;2.42;2.22;;;21.00;67.10;;;;;;4978083;28;20200;-58
2023/12/07 07:04:12;;;;;;;2.80;2.40;;;21.00;67.00;;;;;;4978473;28;20733;-60
2023/12/07 07:06:39;;;;;;;2.47;2.05;;;21.00;67.30;;;;;;4979646;28;20252;-60
2023/12/07 07:09:05;;;;;;;2.67;2.47;;;21.00;67.00;;;;;;4982774;28;20208;-60
2023/12/07 07:11:32;;;;;;;2.50;2.30;;;21.00;66.90;;;;;;4981615;28;20211;-57
2023/12/07 07:13:59;;;;;;;2.53;1.70;;;21.00;67.00;;;;;;4980288;28;21683;-58
2023/12/07 07:16:25;;;;;;;3.08;2.78;;;21.00;67.00;;;;;;4975059;28;20488;-61
2023/12/07 07:18:53;;;;;;;2.55;2.35;;;20.90;66.80;;;;;;4983661;28;20254;-58
2023/12/07 07:21:20;;;;;;;2.88;2.17;;;20.90;67.00;;;;;;4980458;28;20197;-59
2023/12/07 07:23:47;;;;;;;3.08;2.33;;;20.90;67.00;;;;;;4982951;28;20213;-60
2023/12/07 07:26:16;;;;;;;4.33;1.97;;;20.90;67.10;;;;;;4985400;28;20218;-62
2023/12/07 07:28:43;;;;;;;3.38;1.85;;;20.90;67.90;;;;;;4979571;28;20459;-60
2023/12/07 07:31:10;;;;;;;5.75;2.25;;;21.00;68.10;;;;;;4979993;28;20278;-59
2023/12/07 07:33:37;;;;;;;2.92;2.33;;;21.00;68.20;;;;;;4979981;28;20210;-63
2023/12/07 07:36:05;;;;;;;2.27;2.07;;;21.00;68.40;;;;;;4978135;28;20220;-66
2023/12/07 07:38:32;;;;;;;2.47;2.20;;;21.00;68.80;;;;;;4980360;28;20472;-64
2023/12/07 07:40:59;;;;;;;7.63;1.98;;;21.00;68.90;;;;;;4980017;28;20521;-63
2023/12/07 07:43:26;;;;;;;4.38;2.55;;;21.00;69.00;;;;;;4982635;28;20218;-65
2023/12/07 07:45:52;;;;;;;5.15;2.60;;;21.00;69.00;;;;;;4978683;28;20783;-61
2023/12/07 07:48:19;;;;;;;2.67;2.37;;;21.00;69.20;;;;;;4982365;28;20199;-62
2023/12/07 07:50:46;;;;;;;3.25;1.63;;;21.10;69.30;;;;;;4979885;28;20468;-63
2023/12/07 07:53:14;;;;;;;2.65;2.35;;;21.10;69.30;;;;;;4982889;28;20196;-61
2023/12/07 07:55:42;;;;;;;2.50;2.10;;;21.20;69.60;;;;;;4983378;28;20212;-60
2023/12/07 07:58:09;;;;;;;2.20;2.00;;;21.20;69.50;;;;;;4980019;28;20594;-60
2023/12/07 08:00:36;;;;;;;2.50;2.30;;;21.20;69.50;;;;;;4975155;28;21343;-59
2023/12/07 08:03:03;;;;;;;2.93;2.40;;;21.20;69.50;;;;;;4975372;28;20459;-67
2023/12/07 08:05:30;;;;;;;2.23;2.07;;;21.20;69.30;;;;;;4979519;28;20476;-66
2023/12/07 08:07:56;;;;;;;3.10;2.40;;;21.30;69.50;;;;;;4983646;28;20533;-67
2023/12/07 08:10:24;;;;;;;3.27;2.97;;;21.30;69.30;;;;;;4980109;28;20875;-67
2023/12/07 08:12:51;;;;;;;3.60;2.80;;;21.30;69.20;;;;;;4982842;28;20487;-60
2023/12/07 08:15:18;;;;;;;13.73;6.20;;;21.30;68.90;;;;;;4979888;28;20811;-62
2023/12/07 08:17:44;;;;;;;21.07;5.70;;;21.20;66.80;;;;;;4983039;28;20483;-61
2023/12/07 08:20:12;;;;;;;6.83;4.30;;;21.20;65.00;;;;;;4979726;28;20464;-64
2023/12/07 08:22:39;;;;;;;5.43;4.93;;;21.20;65.50;;;;;;4983667;28;20458;-63
2023/12/07 08:25:07;;;;;;;5.90;4.10;;;21.20;65.90;;;;;;4990139;28;20467;-65
2023/12/07 08:27:35;;;;;;;7.53;4.30;;;21.20;66.10;;;;;;4982561;28;20471;-62
2023/12/07 08:30:03;;;;;;;6.57;4.00;;;21.20;65.90;;;;;;4984395;28;20463;-63
2023/12/07 08:32:30;;;;;;;4.83;3.63;;;21.20;65.50;;;;;;4979318;28;20468;-64
2023/12/07 08:34:56;;;;;;;4.60;4.10;;;21.20;65.10;;;;;;4978662;28;20474;-62
2023/12/07 08:37:23;;;;;;;3.80;3.40;;;21.20;64.90;;;;;;4982780;28;20996;-60
2023/12/07 08:39:50;;;;;;;5.00;4.50;;;21.20;64.80;;;;;;4981169;28;20459;-60
2023/12/07 08:42:16;;;;;;;3.77;3.20;;;21.20;64.70;;;;;;4978720;28;20475;-60
2023/12/07 08:44:45;;;;;;;3.93;3.43;;;21.20;64.60;;;;;;4977297;28;20459;-59
2023/12/07 08:47:11;;;;;;;4.60;4.13;;;21.20;64.70;;;;;;4976633;28;20908;-59
2023/12/07 08:49:38;;;;;;;4.87;4.47;;;21.20;64.50;;;;;;4976335;28;20459;-59
2023/12/07 08:52:06;;;;;;;4.53;3.50;;;21.30;64.40;;;;;;4978638;28;20460;-60
2023/12/07 08:54:33;;;;;;;4.77;3.40;;;21.30;64.30;;;;;;4976562;28;20477;-58
2023/12/07 08:57:00;;;;;;;3.63;3.33;;;21.30;64.50;;;;;;4981595;28;20598;-60
2023/12/07 08:59:26;;;;;;;3.30;3.00;;;21.30;64.60;;;;;;4984908;28;20471;-58
2023/12/07 09:01:54;;;;;;;4.30;3.90;;;21.30;64.50;;;;;;4982037;28;20463;-58
2023/12/07 09:04:21;;;;;;;3.87;3.50;;;21.30;64.30;;;;;;4980727;28;20479;-58
2023/12/07 09:06:48;;;;;;;4.47;4.07;;;21.30;64.50;;;;;;4984616;28;20447;-57
2023/12/07 09:09:14;;;;;;;3.93;3.30;;;21.30;64.40;;;;;;4983564;28;20463;-56
2023/12/07 09:11:41;;;;;;;6.80;3.30;;;21.20;64.30;;;;;;4979078;28;20463;-59
2023/12/07 09:14:09;;;;;;;4.53;3.70;;;21.30;64.90;;;;;;4983022;28;20470;-61
2023/12/07 09:16:36;;;;;;;5.68;3.42;;;21.30;65.10;;;;;;4975518;28;20543;-67
2023/12/07 09:19:04;;;;;;;3.60;3.30;;;21.40;65.20;;;;;;4983561;28;20233;-64
2023/12/07 09:21:30;;;;;;;4.50;4.10;;;21.40;65.40;;;;;;4980685;28;20487;-67
2023/12/07 09:23:57;;;;;;;4.73;3.37;;;21.40;65.70;;;;;;4978852;28;20459;-65
2023/12/07 09:26:23;;;;;;;5.30;3.50;;;21.40;65.90;;;;;;4985288;28;20458;-63
2023/12/07 09:28:50;;;;;;;4.70;2.90;;;21.40;66.10;;;;;;4979648;28;21001;-65
2023/12/07 09:31:17;;;;;;;4.13;3.60;;;21.50;66.40;;;;;;4984047;28;20534;-63
2023/12/07 09:33:45;;;;;;;3.23;2.90;;;21.50;66.60;;;;;;4988865;28;20479;-59
2023/12/07 09:36:18;;;;;;;3.10;2.60;;;21.50;66.60;;;;;;4985583;28;20507;-63
2023/12/07 09:38:44;;;;;;;6.53;3.37;;;21.50;66.70;;;;;;4983791;28;21778;-62
2023/12/07 09:41:12;;;;;;;3.27;2.97;;;21.50;66.90;;;;;;4991941;28;20512;-59
2023/12/07 09:43:38;;;;;;;3.30;3.00;;;21.50;67.00;;;;;;4984169;28;20476;-61
2023/12/07 09:46:06;;;;;;;2.53;2.33;;;21.60;67.20;;;;;;4988560;28;20515;-63
2023/12/07 09:48:33;;;;;;;5.53;2.97;;;21.60;67.50;;;;;;4984834;28;20499;-67
2023/12/07 09:51:01;;;;;;;3.40;3.10;;;21.50;67.50;;;;;;4987171;28;20472;-66
2023/12/07 09:53:30;;;;;;;3.40;3.03;;;21.60;67.60;;;;;;4987921;28;21459;-66
2023/12/07 09:55:57;;;;;;;3.40;2.53;;;21.60;67.80;;;;;;4989191;28;21459;-66
2023/12/07 09:58:23;;;;;;;2.93;2.60;;;21.60;67.70;;;;;;4984992;28;20475;-58
2023/12/07 10:00:50;;;;;;;3.60;3.30;;;21.60;67.70;;;;;;4990686;28;20449;-62
2023/12/07 10:03:26;;;;;;;4.03;2.97;;;21.70;68.00;;;;;;4989665;28;20974;-64
2023/12/07 10:05:57;;;;;;;3.50;3.10;;;21.70;67.90;;;;;;4980680;28;20463;-64
2023/12/07 10:08:29;;;;;;;2.90;2.60;;;21.70;67.80;;;;;;4977849;28;20602;-67
2023/12/07 10:11:06;;;;;;;3.30;2.90;;;21.70;67.80;;;;;;4985859;28;20459;-65
2023/12/07 10:13:34;;;;;;;3.63;3.33;;;21.70;67.80;;;;;;4985851;28;20994;-67
2023/12/07 10:16:09;;;;;;;2.83;2.60;;;21.70;67.60;;;;;;4994652;28;20455;-67
2023/12/07 10:18:36;;;;;;;3.67;3.00;;;21.70;67.50;;;;;;4985296;28;20988;-67
2023/12/07 10:21:03;;;;;;;2.70;2.30;;;21.70;67.60;;;;;;4983306;28;21002;-67
2023/12/07 10:23:32;;;;;;;3.40;2.77;;;21.70;67.60;;;;;;4983746;28;20867;-64
2023/12/07 10:26:00;;;;;;;2.60;2.40;;;21.70;67.80;;;;;;4984408;28;20610;-67
2023/12/07 10:28:26;;;;;;;3.50;3.20;;;21.70;67.90;;;;;;4991968;28;20555;-64
2023/12/07 10:30:53;;;;;;;2.63;2.37;;;21.70;68.10;;;;;;4986297;28;20975;-64
2023/12/07 10:33:20;;;;;;;3.20;2.90;;;21.70;68.20;;;;;;4991083;28;20542;-65
2023/12/07 10:35:49;;;;;;;2.93;2.60;;;21.70;68.20;;;;;;4983233;28;21031;-64
2023/12/07 10:38:15;;;;;;;3.73;3.40;;;21.70;68.20;;;;;;4984612;28;20594;-59
2023/12/07 10:40:44;;;;;;;2.73;2.43;;;21.80;68.40;;;;;;4984643;28;20467;-56
2023/12/07 10:43:10;;;;;;;2.93;2.73;;;21.80;68.70;;;;;;4986535;28;20460;-58
2023/12/07 10:45:38;;;;;;;3.60;3.10;;;21.80;68.40;;;;;;4989172;28;20858;-63
2023/12/07 10:48:06;;;;;;;8.17;6.50;;;21.80;69.20;;;;;;4989416;28;20464;-59
2023/12/07 10:50:36;;;;;;;12.83;7.83;;;21.70;62.10;;;;;;4981401;28;20468;-63
2023/12/07 10:53:09;;;;;;;9.57;8.03;;;21.60;58.40;;;;;;4985715;28;20524;-63
2023/12/07 10:55:43;;;;;;;9.73;8.73;;;21.40;57.10;;;;;;4985864;28;21343;-63
2023/12/07 10:58:13;;;;;;;10.03;9.00;;;21.20;56.50;;;;;;4850966;28;20523;-68
2023/12/07 11:00:46;;;;;;;8.80;7.60;;;21.10;54.70;;;;;;4771205;28;20471;-67
2023/12/07 11:03:16;;;;;;;5.80;5.30;;;20.90;55.20;;;;;;4812203;28;21433;-67
2023/12/07 11:05:44;;;;;;;6.13;5.50;;;21.00;57.40;;;;;;4822294;28;20694;-69
2023/12/07 11:08:17;;;;;;;6.53;4.20;;;21.20;57.90;;;;;;4821988;28;21890;-70
2023/12/07 11:11:04;;;;;;;4.83;3.83;;;21.20;58.50;;;;;;4834713;28;20470;-68
2023/12/07 11:13:36;;;;;;;5.40;4.80;;;21.30;58.70;;;;;;4839678;28;20596;-67
2023/12/07 11:16:04;;;;;;;4.80;4.30;;;21.40;59.20;;;;;;4837925;28;21089;-67
2023/12/07 11:18:31;;;;;;;4.30;3.90;;;21.40;59.40;;;;;;4831645;28;20521;-67
2023/12/07 11:20:59;;;;;;;4.37;3.97;;;21.40;59.50;;;;;;4844278;28;20466;-66
2023/12/07 11:23:28;;;;;;;4.37;4.03;;;21.40;59.80;;;;;;4843614;28;21039;-68
2023/12/07 11:25:55;;;;;;;5.13;3.67;;;21.50;60.30;;;;;;4841967;28;21580;-67
2023/12/07 11:28:37;;;;;;;7.93;4.20;;;21.50;60.70;;;;;;4825774;28;20466;-67
2023/12/07 11:31:04;;;;;;;3.40;3.10;;;21.60;61.50;;;;;;4835017;28;20458;-68
2023/12/07 11:33:31;;;;;;;2.90;2.63;;;21.60;62.00;;;;;;4838282;28;20216;-67
2023/12/07 11:36:05;;;;;;;5.77;2.90;;;21.60;62.40;;;;;;4832867;28;27146;-66
2023/12/07 11:38:32;;;;;;;3.70;3.40;;;21.70;62.80;;;;;;4834609;28;20633;-66
2023/12/07 11:40:59;;;;;;;4.10;3.20;;;21.70;63.20;;;;;;4832284;28;20542;-66
2023/12/07 11:43:43;;;;;;;3.40;3.10;;;21.70;63.50;;;;;;4835481;28;27884;-66
2023/12/07 11:46:11;;;;;;;3.73;3.43;;;21.80;63.90;;;;;;4845412;28;20474;-66
2023/12/07 11:48:37;;;;;;;4.33;3.20;;;21.80;64.30;;;;;;4845609;28;20478;-66
2023/12/07 11:51:07;;;;;;;4.83;3.80;;;21.80;64.60;;;;;;4843705;28;20478;-65
2023/12/07 11:53:35;;;;;;;3.47;3.10;;;21.80;64.90;;;;;;4840433;28;21270;-66
2023/12/07 11:56:03;;;;;;;3.73;3.03;;;21.80;65.30;;;;;;4833246;28;21427;-66
2023/12/07 11:58:31;;;;;;;6.50;3.13;;;21.80;65.40;;;;;;4840640;28;21066;-66
2023/12/07 12:01:01;;;;;;;8.33;3.57;;;21.80;65.70;;;;;;4854066;28;21455;-64
2023/12/07 12:03:29;;;;;;;3.20;2.90;;;21.80;65.90;;;;;;4844325;28;26918;-68
2023/12/07 12:05:57;;;;;;;2.70;2.50;;;21.90;66.40;;;;;;4851825;28;20474;-68
2023/12/07 12:08:24;;;;;;;3.30;3.10;;;21.90;66.40;;;;;;4849804;28;27449;-69
2023/12/07 12:10:53;;;;;;;2.83;2.63;;;21.90;66.60;;;;;;4841274;28;20671;-70
2023/12/07 12:13:20;;;;;;;3.70;2.93;;;21.90;66.90;;;;;;4848198;28;21500;-68
2023/12/07 12:15:47;;;;;;;3.53;3.23;;;21.90;67.40;;;;;;4848759;28;20474;-65
2023/12/07 12:18:16;;;;;;;3.33;3.03;;;21.90;67.50;;;;;;4848214;28;20475;-65
2023/12/07 12:20:45;;;;;;;2.97;2.77;;;21.90;67.60;;;;;;4848812;28;20467;-66
2023/12/07 12:23:12;;;;;;;4.30;3.90;;;21.90;67.90;;;;;;4845452;28;20560;-65
2023/12/07 12:25:39;;;;;;;3.73;3.10;;;22.00;67.60;;;;;;4850182;28;20460;-66
2023/12/07 12:28:07;;;;;;;3.53;3.23;;;21.90;68.60;;;;;;4833178;28;20900;-65
2023/12/07 12:30:35;;;;;;;4.70;3.73;;;21.90;68.50;;;;;;4829451;28;20554;-66
2023/12/07 12:33:01;;;;;;;3.37;2.67;;;22.00;68.80;;;;;;4838350;28;20467;-66
2023/12/07 12:35:29;;;;;;;3.07;2.77;;;22.00;68.90;;;;;;4921522;28;20546;-67
2023/12/07 12:37:56;;;;;;;5.50;3.50;;;21.90;68.40;;;;;;4978358;28;20486;-67
2023/12/07 12:40:24;;;;;;;9.53;3.87;;;22.00;69.00;;;;;;4984651;28;20439;-67
2023/12/07 12:42:52;;;;;;;8.10;3.47;;;22.00;68.70;;;;;;4991181;28;20509;-65
2023/12/07 12:45:20;;;;;;;4.13;2.93;;;22.00;69.10;;;;;;4990594;28;20473;-66
2023/12/07 12:47:48;;;;;;;4.43;3.37;;;22.00;69.30;;;;;;4991682;28;20467;-70